createdAt,value
2023-05-05T00:00:42.812Z,37.76
2023-05-05T00:01:42.837Z,37.80
2023-05-05T00:02:42.968Z,37.80
2023-05-05T00:03:42.996Z,37.81
2023-05-05T00:04:42.862Z,37.80
2023-05-05T00:05:42.929Z,37.80
2023-05-05T00:06:42.920Z,37.79
2023-05-05T00:07:42.948Z,37.80
2023-05-05T00:08:43.011Z,37.81
2023-05-05T00:09:43.026Z,37.79
2023-05-05T00:10:43.095Z,37.82
2023-05-05T00:11:43.162Z,37.81
2023-05-05T00:12:43.217Z,37.83
2023-05-05T00:13:43.214Z,37.82
2023-05-05T00:14:43.254Z,37.78
2023-05-05T00:15:43.284Z,37.84
2023-05-05T00:16:43.368Z,37.85
2023-05-05T00:17:43.401Z,37.84
2023-05-05T00:18:43.401Z,37.82
2023-05-05T00:19:43.442Z,37.82
2023-05-05T00:20:43.513Z,37.85
2023-05-05T00:21:43.512Z,37.86
2023-05-05T00:22:43.526Z,37.83
2023-05-05T00:23:43.552Z,37.83
2023-05-05T00:24:43.591Z,37.84
2023-05-05T00:25:43.686Z,37.88
2023-05-05T00:26:43.654Z,37.86
2023-05-05T00:27:43.712Z,37.86
2023-05-05T00:28:43.765Z,37.87
2023-05-05T00:29:43.778Z,37.89
2023-05-05T00:30:43.831Z,37.85
2023-05-05T00:31:43.842Z,37.86
2023-05-05T00:32:43.832Z,37.88
2023-05-05T00:33:43.833Z,37.88
2023-05-05T00:34:43.852Z,37.87
2023-05-05T00:35:43.877Z,37.91
2023-05-05T00:36:43.888Z,37.88
2023-05-05T00:37:43.907Z,37.87
2023-05-05T00:38:43.919Z,37.86
2023-05-05T00:39:43.953Z,37.90
2023-05-05T00:40:43.970Z,37.88
2023-05-05T00:41:44.000Z,37.89
2023-05-05T00:42:43.991Z,37.88
2023-05-05T00:43:43.978Z,37.91
2023-05-05T00:44:44.006Z,37.89
2023-05-05T00:45:44.046Z,37.89
2023-05-05T00:46:44.081Z,37.91
2023-05-05T00:47:44.120Z,37.90
2023-05-05T00:48:44.064Z,37.91
2023-05-05T00:49:44.078Z,37.93
2023-05-05T00:50:44.069Z,37.90
2023-05-05T00:51:44.082Z,37.91
2023-05-05T00:52:44.088Z,37.94
2023-05-05T00:53:44.105Z,37.94
2023-05-05T00:54:44.074Z,37.93
2023-05-05T00:55:44.096Z,37.94
2023-05-05T00:56:44.081Z,37.92
2023-05-05T00:57:44.076Z,37.94
2023-05-05T00:58:44.078Z,37.91
2023-05-05T00:59:44.084Z,37.93
2023-05-05T01:00:44.068Z,37.95
2023-05-05T01:01:44.078Z,37.94
2023-05-05T01:02:44.157Z,37.94
2023-05-05T01:03:44.169Z,37.92
2023-05-05T01:04:44.091Z,37.93
2023-05-05T01:05:44.111Z,37.95
2023-05-05T01:06:44.083Z,37.96
2023-05-05T01:07:44.112Z,37.92
2023-05-05T01:08:44.097Z,38.00
2023-05-05T01:09:44.102Z,37.97
2023-05-05T01:10:44.093Z,37.96
2023-05-05T01:11:44.083Z,37.97
2023-05-05T01:12:44.120Z,37.96
2023-05-05T01:13:44.089Z,37.96
2023-05-05T01:14:44.102Z,37.97
2023-05-05T01:15:44.081Z,37.98
2023-05-05T01:16:44.135Z,37.95
2023-05-05T01:17:44.133Z,37.97
2023-05-05T01:18:44.087Z,37.97
2023-05-05T01:19:44.100Z,37.99
2023-05-05T01:20:44.094Z,37.98
2023-05-05T01:21:44.086Z,37.97
2023-05-05T01:22:44.077Z,37.96
2023-05-05T01:23:44.076Z,37.98
2023-05-05T01:24:44.078Z,38.00
2023-05-05T01:25:44.085Z,37.95
2023-05-05T01:26:44.133Z,38.00
2023-05-05T01:27:44.127Z,38.01
2023-05-05T01:28:44.093Z,37.98
2023-05-05T01:29:44.116Z,37.97
2023-05-05T01:30:44.079Z,37.99
2023-05-05T01:31:44.166Z,38.01
2023-05-05T01:32:44.158Z,38.00
2023-05-05T01:33:44.080Z,38.00
2023-05-05T01:34:44.084Z,38.00
2023-05-05T01:35:44.104Z,37.99
2023-05-05T01:36:44.108Z,37.98
2023-05-05T01:37:44.092Z,38.00
2023-05-05T01:38:44.084Z,38.00
2023-05-05T01:39:44.097Z,38.02
2023-05-05T01:40:44.121Z,38.01
2023-05-05T01:41:44.108Z,38.01
2023-05-05T01:42:44.092Z,38.01
2023-05-05T01:43:44.121Z,38.01
2023-05-05T01:44:44.088Z,37.99
2023-05-05T01:45:44.115Z,38.01
2023-05-05T01:46:44.131Z,38.01
2023-05-05T01:47:44.143Z,38.00
2023-05-05T01:48:44.123Z,38.02
2023-05-05T01:49:44.079Z,38.01
2023-05-05T01:50:44.091Z,37.99
2023-05-05T01:51:44.073Z,38.00
2023-05-05T01:52:44.080Z,38.02
2023-05-05T01:53:44.046Z,38.02
2023-05-05T01:54:44.066Z,38.00
2023-05-05T01:55:44.084Z,38.02
2023-05-05T01:56:44.052Z,38.00
2023-05-05T01:57:44.069Z,38.01
2023-05-05T01:58:44.047Z,38.01
2023-05-05T01:59:44.049Z,38.03
2023-05-05T02:00:44.117Z,38.03
2023-05-05T02:01:44.090Z,38.02
2023-05-05T02:02:44.144Z,38.05
2023-05-05T02:03:44.073Z,38.02
2023-05-05T02:04:44.052Z,38.01
2023-05-05T02:05:44.049Z,38.00
2023-05-05T02:06:44.047Z,38.01
2023-05-05T02:07:44.052Z,38.00
2023-05-05T02:08:44.016Z,37.99
2023-05-05T02:09:44.674Z,38.00
2023-05-05T02:10:44.059Z,38.02
2023-05-05T02:11:44.023Z,38.01
2023-05-05T02:12:44.070Z,38.02
2023-05-05T02:13:44.101Z,37.99
2023-05-05T02:14:44.050Z,38.03
2023-05-05T02:15:44.104Z,38.01
2023-05-05T02:16:44.022Z,38.02
2023-05-05T02:17:44.084Z,38.00
2023-05-05T02:18:44.079Z,38.00
2023-05-05T02:19:44.021Z,38.01
2023-05-05T02:20:44.080Z,38.02
2023-05-05T02:21:44.053Z,38.01
2023-05-05T02:22:44.049Z,38.04
2023-05-05T02:23:44.057Z,38.04
2023-05-05T02:24:44.022Z,38.01
2023-05-05T02:25:44.032Z,38.04
2023-05-05T02:26:44.059Z,38.01
2023-05-05T02:27:44.061Z,38.01
2023-05-05T02:28:44.019Z,38.02
2023-05-05T02:29:44.048Z,38.03
2023-05-05T02:30:44.069Z,38.03
2023-05-05T02:31:44.166Z,38.00
2023-05-05T02:32:44.056Z,38.03
2023-05-05T02:33:44.022Z,38.02
2023-05-05T02:34:44.031Z,38.02
2023-05-05T02:35:44.056Z,38.00
2023-05-05T02:36:44.013Z,38.00
2023-05-05T02:37:44.032Z,38.02
2023-05-05T02:38:44.040Z,38.01
2023-05-05T02:39:44.003Z,38.01
2023-05-05T02:40:44.185Z,38.01
2023-05-05T02:41:43.986Z,38.04
2023-05-05T02:42:44.042Z,38.03
2023-05-05T02:43:43.987Z,38.01
2023-05-05T02:44:43.985Z,38.02
2023-05-05T02:45:44.011Z,38.05
2023-05-05T02:46:44.017Z,38.02
2023-05-05T02:47:43.988Z,37.99
2023-05-05T02:48:43.962Z,37.99
2023-05-05T02:49:43.999Z,38.03
2023-05-05T02:50:44.009Z,38.00
2023-05-05T02:51:43.950Z,38.00
2023-05-05T02:52:43.987Z,37.99
2023-05-05T02:53:43.968Z,37.99
2023-05-05T02:54:43.954Z,38.00
2023-05-05T02:55:43.972Z,37.98
2023-05-05T02:56:43.947Z,38.00
2023-05-05T02:57:44.002Z,38.03
2023-05-05T02:58:43.980Z,38.02
2023-05-05T02:59:43.989Z,37.99
2023-05-05T03:00:43.947Z,38.01
2023-05-05T03:01:43.969Z,38.00
2023-05-05T03:02:44.048Z,38.00
2023-05-05T03:03:44.088Z,38.01
2023-05-05T03:04:43.957Z,38.01
2023-05-05T03:05:43.948Z,37.99
2023-05-05T03:06:43.971Z,38.01
2023-05-05T03:07:43.977Z,37.99
2023-05-05T03:08:43.959Z,38.00
2023-05-05T03:09:43.933Z,38.02
2023-05-05T03:10:43.948Z,38.01
2023-05-05T03:11:43.946Z,38.01
2023-05-05T03:12:43.948Z,38.01
2023-05-05T03:13:43.987Z,38.01
2023-05-05T03:14:43.932Z,38.02
2023-05-05T03:15:43.925Z,38.02
2023-05-05T03:16:44.115Z,38.02
2023-05-05T03:17:44.017Z,38.02
2023-05-05T03:18:43.924Z,38.02
2023-05-05T03:19:43.932Z,38.03
2023-05-05T03:20:43.973Z,38.01
2023-05-05T03:21:43.931Z,38.01
2023-05-05T03:22:43.959Z,38.02
2023-05-05T03:23:43.928Z,38.00
2023-05-05T03:24:43.953Z,38.00
2023-05-05T03:25:43.920Z,38.02
2023-05-05T03:26:43.933Z,38.00
2023-05-05T03:27:43.957Z,38.04
2023-05-05T03:28:43.906Z,38.00
2023-05-05T03:29:43.936Z,38.03
2023-05-05T03:30:43.911Z,38.02
2023-05-05T03:31:44.000Z,38.04
2023-05-05T03:32:43.957Z,38.02
2023-05-05T03:33:43.952Z,38.02
2023-05-05T03:34:43.920Z,38.01
2023-05-05T03:35:43.947Z,38.03
2023-05-05T03:36:43.948Z,38.01
2023-05-05T03:37:43.947Z,38.00
2023-05-05T03:38:43.945Z,38.03
2023-05-05T03:39:43.947Z,38.01
2023-05-05T03:40:44.761Z,38.00
2023-05-05T03:41:43.985Z,38.01
2023-05-05T03:42:43.970Z,38.03
2023-05-05T03:43:43.938Z,38.02
2023-05-05T03:44:43.951Z,37.99
2023-05-05T03:45:43.983Z,38.03
2023-05-05T03:46:43.971Z,38.04
2023-05-05T03:47:44.043Z,38.01
2023-05-05T03:48:43.951Z,38.01
2023-05-05T03:49:43.954Z,38.00
2023-05-05T03:50:43.964Z,38.01
2023-05-05T03:51:44.002Z,38.01
2023-05-05T03:52:44.035Z,38.03
2023-05-05T03:53:44.012Z,38.01
2023-05-05T03:54:44.041Z,38.01
2023-05-05T03:55:44.024Z,38.01
2023-05-05T03:56:44.044Z,38.00
2023-05-05T03:57:44.042Z,38.00
2023-05-05T03:58:44.044Z,37.98
2023-05-05T03:59:44.043Z,38.00
2023-05-05T04:00:44.045Z,38.02
2023-05-05T04:01:44.070Z,38.03
2023-05-05T04:02:44.155Z,37.99
2023-05-05T04:03:44.147Z,38.01
2023-05-05T04:04:44.056Z,38.00
2023-05-05T04:05:44.035Z,38.03
2023-05-05T04:06:44.085Z,38.01
2023-05-05T04:07:44.135Z,38.01
2023-05-05T04:08:44.052Z,38.01
2023-05-05T04:09:44.066Z,38.00
2023-05-05T04:10:44.051Z,38.00
2023-05-05T04:11:44.058Z,38.01
2023-05-05T04:12:44.118Z,38.02
2023-05-05T04:13:44.077Z,38.00
2023-05-05T04:14:44.076Z,37.99
2023-05-05T04:15:44.110Z,37.99
2023-05-05T04:16:44.159Z,37.99
2023-05-05T04:17:44.262Z,37.99
2023-05-05T04:18:44.165Z,38.00
2023-05-05T04:19:44.167Z,38.00
2023-05-05T04:20:44.176Z,37.99
2023-05-05T04:21:44.181Z,38.00
2023-05-05T04:22:44.253Z,37.96
2023-05-05T04:23:44.200Z,37.99
2023-05-05T04:24:44.226Z,37.98
2023-05-05T04:25:44.244Z,38.00
2023-05-05T04:26:44.310Z,37.96
2023-05-05T04:27:44.289Z,37.97
2023-05-05T04:28:44.281Z,37.99
2023-05-05T04:29:44.310Z,37.97
2023-05-05T04:30:44.303Z,37.94
2023-05-05T04:31:44.341Z,37.98
2023-05-05T04:32:44.370Z,37.96
2023-05-05T04:33:44.330Z,37.98
2023-05-05T04:34:44.334Z,37.97
2023-05-05T04:35:44.342Z,37.96
2023-05-05T04:36:44.353Z,37.98
2023-05-05T04:37:44.397Z,37.95
2023-05-05T04:38:44.393Z,37.98
2023-05-05T04:39:44.355Z,37.95
2023-05-05T04:40:44.359Z,37.94
2023-05-05T04:41:44.362Z,37.96
2023-05-05T04:42:44.380Z,37.95
2023-05-05T04:43:44.370Z,37.97
2023-05-05T04:44:44.371Z,37.97
2023-05-05T04:45:44.378Z,37.96
2023-05-05T04:46:44.393Z,37.96
2023-05-05T04:47:44.388Z,37.94
2023-05-05T04:48:44.361Z,37.94
2023-05-05T04:49:44.363Z,37.91
2023-05-05T04:50:44.359Z,37.93
2023-05-05T04:51:44.343Z,37.93
2023-05-05T04:52:44.341Z,37.92
2023-05-05T04:53:44.339Z,37.90
2023-05-05T04:54:44.367Z,37.92
2023-05-05T04:55:44.369Z,37.91
2023-05-05T04:56:44.407Z,37.88
2023-05-05T04:57:44.394Z,37.88
2023-05-05T04:58:44.406Z,37.85
2023-05-05T04:59:44.441Z,37.89
2023-05-05T05:00:44.431Z,37.86
2023-05-05T05:01:44.440Z,37.89
2023-05-05T05:02:44.517Z,37.87
2023-05-05T05:03:44.514Z,37.85
2023-05-05T05:04:44.429Z,37.87
2023-05-05T05:05:44.443Z,37.88
2023-05-05T05:06:44.432Z,37.85
2023-05-05T05:07:44.449Z,37.87
2023-05-05T05:08:44.450Z,37.85
2023-05-05T05:09:44.430Z,37.88
2023-05-05T05:10:44.444Z,37.85
2023-05-05T05:11:44.467Z,37.85
2023-05-05T05:12:44.546Z,37.85
2023-05-05T05:13:44.498Z,37.82
2023-05-05T05:14:44.520Z,37.84
2023-05-05T05:15:44.496Z,37.86
2023-05-05T05:16:44.556Z,37.84
2023-05-05T05:17:44.544Z,37.83
2023-05-05T05:18:44.516Z,37.84
2023-05-05T05:19:44.566Z,37.85
2023-05-05T05:20:44.560Z,37.85
2023-05-05T05:21:44.552Z,37.87
2023-05-05T05:22:44.562Z,37.85
2023-05-05T05:23:44.559Z,37.86
2023-05-05T05:24:44.654Z,37.87
2023-05-05T05:25:44.580Z,37.85
2023-05-05T05:26:44.556Z,37.85
2023-05-05T05:27:45.538Z,37.82
2023-05-05T05:28:44.557Z,37.86
2023-05-05T05:29:44.541Z,37.82
2023-05-05T05:30:44.546Z,37.82
2023-05-05T05:31:44.639Z,37.82
2023-05-05T05:32:44.565Z,37.85
2023-05-05T05:33:44.511Z,37.84
2023-05-05T05:34:44.499Z,37.87
2023-05-05T05:35:44.560Z,38.09
2023-05-05T05:36:44.602Z,38.42
2023-05-05T05:37:44.475Z,38.56
2023-05-05T05:38:44.596Z,38.45
2023-05-05T05:39:44.515Z,38.64
2023-05-05T05:40:44.459Z,39.59
2023-05-05T05:41:44.482Z,39.15
2023-05-05T05:42:44.449Z,39.58
2023-05-05T05:43:44.447Z,39.26
2023-05-05T05:44:44.449Z,39.43
2023-05-05T05:45:44.519Z,39.93
2023-05-05T05:46:44.473Z,39.83
2023-05-05T05:47:44.491Z,39.79
2023-05-05T05:48:44.412Z,39.71
2023-05-05T05:49:44.403Z,39.62
2023-05-05T05:50:44.408Z,39.41
2023-05-05T05:51:44.377Z,39.39
2023-05-05T05:52:44.367Z,39.40
2023-05-05T05:53:44.375Z,39.39
2023-05-05T05:54:44.386Z,39.45
2023-05-05T05:55:44.361Z,39.39
2023-05-05T05:56:44.357Z,39.53
2023-05-05T05:57:44.342Z,39.66
2023-05-05T05:58:44.344Z,39.52
2023-05-05T05:59:44.329Z,39.55
2023-05-05T06:00:44.329Z,39.53
2023-05-05T06:01:44.352Z,39.55
2023-05-05T06:02:44.361Z,39.54
2023-05-05T06:03:44.361Z,39.51
2023-05-05T06:04:44.316Z,39.57
2023-05-05T06:05:44.288Z,39.56
2023-05-05T06:06:44.721Z,39.59
2023-05-05T06:07:44.325Z,39.61
2023-05-05T06:08:44.731Z,39.58
2023-05-05T06:09:44.349Z,39.53
2023-05-05T06:10:44.381Z,39.67
2023-05-05T06:11:44.467Z,39.60
2023-05-05T06:12:44.512Z,39.58
2023-05-05T06:13:44.534Z,39.61
2023-05-05T06:14:44.556Z,39.56
2023-05-05T06:15:44.639Z,39.59
2023-05-05T06:16:44.746Z,39.58
2023-05-05T06:17:44.754Z,39.58
2023-05-05T06:18:44.790Z,39.58
2023-05-05T06:19:44.818Z,39.61
2023-05-05T06:20:44.833Z,39.53
2023-05-05T06:21:44.854Z,39.53
2023-05-05T06:22:44.909Z,39.55
2023-05-05T06:23:44.892Z,39.53
2023-05-05T06:24:44.935Z,39.54
2023-05-05T06:25:44.928Z,39.49
2023-05-05T06:26:44.964Z,39.48
2023-05-05T06:27:45.744Z,39.49
2023-05-05T06:28:45.275Z,39.51
2023-05-05T06:29:45.148Z,39.47
2023-05-05T06:30:45.130Z,39.49
2023-05-05T06:31:45.207Z,39.47
2023-05-05T06:32:45.282Z,39.47
2023-05-05T06:33:45.221Z,39.45
2023-05-05T06:34:45.266Z,39.44
2023-05-05T06:35:46.241Z,39.45
2023-05-05T06:36:45.369Z,39.42
2023-05-05T06:37:45.436Z,39.59
2023-05-05T06:38:45.740Z,40.64
2023-05-05T06:39:45.499Z,41.02
2023-05-05T06:40:45.592Z,40.85
2023-05-05T06:41:45.629Z,41.34
2023-05-05T06:42:45.648Z,41.49
2023-05-05T06:43:45.699Z,41.14
2023-05-05T06:44:45.762Z,41.25
2023-05-05T06:45:45.784Z,41.23
2023-05-05T06:46:45.866Z,41.09
2023-05-05T06:47:45.848Z,40.97
2023-05-05T06:48:45.858Z,41.01
2023-05-05T06:49:45.921Z,40.55
2023-05-05T06:50:45.856Z,40.06
2023-05-05T06:51:45.922Z,40.33
2023-05-05T06:52:45.890Z,39.95
2023-05-05T06:53:45.873Z,39.87
2023-05-05T06:54:45.867Z,40.10
2023-05-05T06:55:45.897Z,40.55
2023-05-05T06:56:45.925Z,40.06
2023-05-05T06:57:45.917Z,39.53
2023-05-05T06:58:45.957Z,38.27
2023-05-05T06:59:45.952Z,37.19
2023-05-05T07:00:46.005Z,37.03
2023-05-05T07:01:46.005Z,36.74
2023-05-05T07:02:46.047Z,37.68
2023-05-05T07:03:46.093Z,38.12
2023-05-05T07:04:46.048Z,38.20
2023-05-05T07:05:46.072Z,38.48
2023-05-05T07:06:46.092Z,38.77
2023-05-05T07:07:46.235Z,38.58
2023-05-05T07:08:46.211Z,38.83
2023-05-05T07:09:46.274Z,39.49
2023-05-05T07:10:46.344Z,39.14
2023-05-05T07:11:46.469Z,39.06
2023-05-05T07:12:46.444Z,39.15
2023-05-05T07:13:46.549Z,39.30
2023-05-05T07:14:46.570Z,39.26
2023-05-05T07:15:46.729Z,39.49
2023-05-05T07:16:46.704Z,39.37
2023-05-05T07:17:46.713Z,39.59
2023-05-05T07:18:46.720Z,39.94
2023-05-05T07:19:46.763Z,39.66
2023-05-05T07:20:46.825Z,39.65
2023-05-05T07:21:46.860Z,39.67
2023-05-05T07:22:46.894Z,39.48
2023-05-05T07:23:47.035Z,39.69
2023-05-05T07:24:47.344Z,37.22
2023-05-05T07:25:47.017Z,37.71
2023-05-05T07:26:47.062Z,37.95
2023-05-05T07:27:47.115Z,38.76
2023-05-05T07:28:47.307Z,38.62
2023-05-05T07:29:47.208Z,38.73
2023-05-05T07:30:47.217Z,38.84
2023-05-05T07:31:47.304Z,39.10
2023-05-05T07:32:47.288Z,38.67
2023-05-05T07:33:47.842Z,37.15
2023-05-05T07:34:47.340Z,36.73
2023-05-05T07:35:47.361Z,35.95
2023-05-05T07:36:47.389Z,35.86
2023-05-05T07:37:47.621Z,35.85
2023-05-05T07:38:47.506Z,36.25
2023-05-05T07:39:47.645Z,35.67
2023-05-05T07:40:47.553Z,35.32
2023-05-05T07:41:47.615Z,35.14
2023-05-05T07:42:47.639Z,34.84
2023-05-05T07:43:47.768Z,34.69
2023-05-05T07:44:47.770Z,34.80
2023-05-05T07:45:47.867Z,35.08
2023-05-05T07:46:47.951Z,34.94
2023-05-05T07:47:48.014Z,34.99
2023-05-05T07:48:47.956Z,34.89
2023-05-05T07:49:47.947Z,34.76
2023-05-05T07:50:48.031Z,34.67
2023-05-05T07:51:48.067Z,34.56
2023-05-05T07:52:51.786Z,34.65
2023-05-05T07:53:49.074Z,34.50
2023-05-05T07:54:48.067Z,34.28
2023-05-05T07:55:48.034Z,34.31
2023-05-05T07:56:48.168Z,34.32
2023-05-05T07:57:48.019Z,34.35
2023-05-05T07:58:48.027Z,34.27
2023-05-05T07:59:48.012Z,34.36
2023-05-05T08:00:48.053Z,34.25
2023-05-05T08:01:48.338Z,34.20
2023-05-05T08:02:48.163Z,34.14
2023-05-05T08:03:48.101Z,34.25
2023-05-05T08:04:48.023Z,34.03
2023-05-05T08:05:49.409Z,34.00
2023-05-05T08:06:47.961Z,33.97
2023-05-05T08:07:47.994Z,33.96
2023-05-05T08:08:48.033Z,34.17
2023-05-05T08:09:47.939Z,34.43
2023-05-05T08:10:47.938Z,34.57
2023-05-05T08:11:48.078Z,34.86
2023-05-05T08:12:48.022Z,34.93
2023-05-05T08:13:47.896Z,35.26
2023-05-05T08:14:47.905Z,35.32
2023-05-05T08:15:47.971Z,35.30
2023-05-05T08:16:48.788Z,35.70
2023-05-05T08:17:48.324Z,35.59
2023-05-05T08:18:47.869Z,35.66
2023-05-05T08:19:47.873Z,35.89
2023-05-05T08:20:47.844Z,36.06
2023-05-05T08:21:47.871Z,36.24
2023-05-05T08:22:48.008Z,35.39
2023-05-05T08:23:47.857Z,35.26
2023-05-05T08:24:47.888Z,35.47
2023-05-05T08:25:47.886Z,35.35
2023-05-05T08:26:47.815Z,35.31
2023-05-05T08:27:47.983Z,35.56
2023-05-05T08:28:47.809Z,35.51
2023-05-05T08:29:47.824Z,35.53
2023-05-05T08:30:47.788Z,35.58
2023-05-05T08:31:47.865Z,35.56
2023-05-05T08:32:47.842Z,35.59
2023-05-05T08:33:47.781Z,35.67
2023-05-05T08:34:47.915Z,35.67
2023-05-05T08:35:47.772Z,35.71
2023-05-05T08:36:47.769Z,35.82
2023-05-05T08:37:47.875Z,35.83
2023-05-05T08:38:47.729Z,35.86
2023-05-05T08:39:47.725Z,35.91
2023-05-05T08:40:47.744Z,35.98
2023-05-05T08:41:47.780Z,36.02
2023-05-05T08:42:47.920Z,37.06
2023-05-05T08:43:47.894Z,37.29
2023-05-05T08:44:48.316Z,37.58
2023-05-05T08:45:47.936Z,37.36
2023-05-05T08:46:48.061Z,37.39
2023-05-05T08:47:48.123Z,37.55
2023-05-05T08:48:48.043Z,37.67
2023-05-05T08:49:48.083Z,37.71
2023-05-05T08:50:48.114Z,38.32
2023-05-05T08:51:48.107Z,38.05
2023-05-05T08:52:49.929Z,38.07
2023-05-05T08:53:48.117Z,38.27
2023-05-05T08:54:48.126Z,38.61
2023-05-05T08:55:48.120Z,39.10
2023-05-05T08:56:48.102Z,39.10
2023-05-05T08:57:48.127Z,39.01
2023-05-05T08:58:48.106Z,39.16
2023-05-05T08:59:48.246Z,39.17
2023-05-05T09:00:48.100Z,39.28
2023-05-05T09:01:48.062Z,39.29
2023-05-05T09:02:48.454Z,39.28
2023-05-05T09:03:48.063Z,39.46
2023-05-05T09:04:48.099Z,39.70
2023-05-05T09:05:48.047Z,40.23
2023-05-05T09:06:48.048Z,39.92
2023-05-05T09:07:48.034Z,39.42
2023-05-05T09:08:48.009Z,39.52
2023-05-05T09:09:48.002Z,39.59
2023-05-05T09:10:48.019Z,39.04
2023-05-05T09:11:47.982Z,37.93
2023-05-05T09:12:48.034Z,38.71
2023-05-05T09:13:48.019Z,39.07
2023-05-05T09:14:47.996Z,39.47
2023-05-05T09:15:47.969Z,39.86
2023-05-05T09:16:47.975Z,39.90
2023-05-05T09:17:48.013Z,40.52
2023-05-05T09:18:47.985Z,39.82
2023-05-05T09:19:47.930Z,39.47
2023-05-05T09:20:47.957Z,39.86
2023-05-05T09:21:47.930Z,40.15
2023-05-05T09:22:47.910Z,40.21
2023-05-05T09:23:47.919Z,40.33
2023-05-05T09:24:47.920Z,40.36
2023-05-05T09:25:47.913Z,40.19
2023-05-05T09:26:47.904Z,40.21
2023-05-05T09:27:47.913Z,40.27
2023-05-05T09:28:47.935Z,39.70
2023-05-05T09:29:47.867Z,38.26
2023-05-05T09:30:47.921Z,37.48
2023-05-05T09:31:47.939Z,36.49
2023-05-05T09:32:47.901Z,38.53
2023-05-05T09:33:47.955Z,38.52
2023-05-05T09:34:47.906Z,38.59
2023-05-05T09:35:47.821Z,38.71
2023-05-05T09:36:48.000Z,39.02
2023-05-05T09:37:47.913Z,39.11
2023-05-05T09:38:47.824Z,39.25
2023-05-05T09:39:47.868Z,39.09
2023-05-05T09:40:47.778Z,38.90
2023-05-05T09:41:47.818Z,38.87
2023-05-05T09:42:47.799Z,38.80
2023-05-05T09:43:47.801Z,38.70
2023-05-05T09:44:49.829Z,38.52
2023-05-05T09:45:47.902Z,38.44
2023-05-05T09:46:48.904Z,38.38
2023-05-05T09:47:48.138Z,38.44
2023-05-05T09:48:48.005Z,38.45
2023-05-05T09:49:48.003Z,38.50
2023-05-05T09:50:48.007Z,38.33
2023-05-05T09:51:48.066Z,38.27
2023-05-05T09:52:48.791Z,38.38
2023-05-05T09:53:47.975Z,38.42
2023-05-05T09:54:48.044Z,38.42
2023-05-05T09:55:47.989Z,38.42
2023-05-05T09:56:48.036Z,38.03
2023-05-05T09:57:48.027Z,38.04
2023-05-05T09:58:48.035Z,38.06
2023-05-05T09:59:48.007Z,37.91
2023-05-05T10:00:48.037Z,37.82
2023-05-05T10:01:48.038Z,37.82
2023-05-05T10:02:48.035Z,37.74
2023-05-05T10:03:48.029Z,37.80
2023-05-05T10:04:48.103Z,37.85
2023-05-05T10:05:48.051Z,37.85
2023-05-05T10:06:48.040Z,37.87
2023-05-05T10:07:48.075Z,37.63
2023-05-05T10:08:48.020Z,37.64
2023-05-05T10:09:48.091Z,37.36
2023-05-05T10:10:47.999Z,37.54
2023-05-05T10:11:48.006Z,37.30
2023-05-05T10:12:48.039Z,37.30
2023-05-05T10:13:48.007Z,37.16
2023-05-05T10:14:48.032Z,36.93
2023-05-05T10:15:48.131Z,37.15
2023-05-05T10:16:48.012Z,37.39
2023-05-05T10:18:05.108Z,37.63
2023-05-05T10:18:49.006Z,37.70
2023-05-05T10:19:48.075Z,37.88
2023-05-05T10:20:48.000Z,37.42
2023-05-05T10:21:47.983Z,37.83
2023-05-05T10:22:47.992Z,37.41
2023-05-05T10:23:48.145Z,37.33
2023-05-05T10:24:47.973Z,37.61
2023-05-05T10:25:48.002Z,38.12
2023-05-05T10:26:48.050Z,37.68
2023-05-05T10:27:48.329Z,36.26
2023-05-05T10:28:48.185Z,36.95
2023-05-05T10:29:48.199Z,36.43
2023-05-05T10:30:48.261Z,36.23
2023-05-05T10:31:48.304Z,36.35
2023-05-05T10:32:59.357Z,35.87
2023-05-05T10:33:49.389Z,35.85
2023-05-05T10:34:48.336Z,35.98
2023-05-05T10:35:48.521Z,36.16
2023-05-05T10:36:48.395Z,35.38
2023-05-05T10:37:48.495Z,35.30
2023-05-05T10:38:48.414Z,35.65
2023-05-05T10:39:48.457Z,35.95
2023-05-05T10:40:48.489Z,36.22
2023-05-05T10:41:48.538Z,33.90
2023-05-05T10:42:48.868Z,34.40
2023-05-05T10:43:48.599Z,34.84
2023-05-05T10:44:48.874Z,35.36
2023-05-05T10:45:48.746Z,35.32
2023-05-05T10:46:48.723Z,35.40
2023-05-05T10:47:48.850Z,36.00
2023-05-05T10:48:48.849Z,36.41
2023-05-05T10:49:49.382Z,34.86
2023-05-05T10:50:48.873Z,35.46
2023-05-05T10:51:48.887Z,35.27
2023-05-05T10:52:48.947Z,35.70
2023-05-05T10:53:49.048Z,35.95
2023-05-05T10:54:49.044Z,36.37
2023-05-05T10:55:49.051Z,34.98
2023-05-05T10:56:49.182Z,33.10
2023-05-05T10:57:49.200Z,33.28
2023-05-05T10:58:59.806Z,32.49
2023-05-05T10:59:50.283Z,33.06
2023-05-05T11:00:49.212Z,33.10
2023-05-05T11:01:49.176Z,32.79
2023-05-05T11:02:49.200Z,33.10
2023-05-05T11:03:49.236Z,31.91
2023-05-05T11:04:49.177Z,31.70
2023-05-05T11:05:49.161Z,31.72
2023-05-05T11:06:49.821Z,32.40
2023-05-05T11:07:49.147Z,32.15
2023-05-05T11:08:49.140Z,32.49
2023-05-05T11:09:49.171Z,32.84
2023-05-05T11:10:49.327Z,33.13
2023-05-05T11:11:49.168Z,32.29
2023-05-05T11:12:49.192Z,32.32
2023-05-05T11:13:49.221Z,32.32
2023-05-05T11:14:49.292Z,32.34
2023-05-05T11:15:49.307Z,32.59
2023-05-05T11:16:49.270Z,32.99
2023-05-05T11:17:49.309Z,33.25
2023-05-05T11:18:49.291Z,33.50
2023-05-05T11:19:49.290Z,33.74
2023-05-05T11:20:49.298Z,33.84
2023-05-05T11:21:49.335Z,33.85
2023-05-05T11:22:49.354Z,33.87
2023-05-05T11:23:49.913Z,33.92
2023-05-05T11:24:49.416Z,33.95
2023-05-05T11:25:49.439Z,33.99
2023-05-05T11:26:49.517Z,34.08
2023-05-05T11:27:49.541Z,34.11
2023-05-05T11:28:49.561Z,34.21
2023-05-05T11:29:51.509Z,34.25
2023-05-05T11:30:49.677Z,34.28
2023-05-05T11:31:49.716Z,34.36
2023-05-05T11:32:49.849Z,34.38
2023-05-05T11:33:49.838Z,34.49
2023-05-05T11:34:49.871Z,34.56
2023-05-05T11:35:49.913Z,34.55
2023-05-05T11:36:50.012Z,34.65
2023-05-05T11:37:50.045Z,34.61
2023-05-05T11:38:50.146Z,34.66
2023-05-05T11:39:50.173Z,34.76
2023-05-05T11:40:50.225Z,34.85
2023-05-05T11:41:50.361Z,34.88
2023-05-05T11:42:50.353Z,34.95
2023-05-05T11:43:50.418Z,34.96
2023-05-05T11:44:50.446Z,35.01
2023-05-05T11:45:50.540Z,35.06
2023-05-05T11:46:50.500Z,35.04
2023-05-05T11:47:50.563Z,35.18
2023-05-05T11:48:50.858Z,35.14
2023-05-05T11:49:50.564Z,35.11
2023-05-05T11:50:50.549Z,35.18
2023-05-05T11:51:50.569Z,35.29
2023-05-05T11:52:50.572Z,35.28
2023-05-05T11:53:50.587Z,35.24
2023-05-05T11:54:50.681Z,35.26
2023-05-05T11:55:50.789Z,35.31
2023-05-05T11:56:50.623Z,35.33
2023-05-05T11:57:50.633Z,35.39
2023-05-05T11:58:50.720Z,35.38
2023-05-05T11:59:50.683Z,35.39
2023-05-05T12:00:50.671Z,35.44
2023-05-05T12:01:50.658Z,35.46
2023-05-05T12:02:50.701Z,35.50
2023-05-05T12:03:50.824Z,35.51
2023-05-05T12:04:50.765Z,35.50
2023-05-05T12:05:50.656Z,35.49
2023-05-05T12:06:50.646Z,35.54
2023-05-05T12:07:50.674Z,35.60
2023-05-05T12:08:50.667Z,35.59
2023-05-05T12:09:50.696Z,35.60
2023-05-05T12:10:50.649Z,35.64
2023-05-05T12:11:50.667Z,35.66
2023-05-05T12:12:51.290Z,35.64
2023-05-05T12:13:50.679Z,35.68
2023-05-05T12:14:50.664Z,35.68
2023-05-05T12:15:50.668Z,35.71
2023-05-05T12:16:50.686Z,35.68
2023-05-05T12:17:50.758Z,35.69
2023-05-05T12:18:50.680Z,35.67
2023-05-05T12:19:50.648Z,35.69
2023-05-05T12:20:50.719Z,35.66
2023-05-05T12:21:50.667Z,35.75
2023-05-05T12:22:50.640Z,35.75
2023-05-05T12:23:50.639Z,35.78
2023-05-05T12:24:51.901Z,35.82
2023-05-05T12:25:50.723Z,35.84
2023-05-05T12:26:50.683Z,35.87
2023-05-05T12:27:50.720Z,35.87
2023-05-05T12:28:50.700Z,35.86
2023-05-05T12:29:50.701Z,35.87
2023-05-05T12:30:51.649Z,35.90
2023-05-05T12:31:50.760Z,35.92
2023-05-05T12:32:50.744Z,35.83
2023-05-05T12:33:50.714Z,35.82
2023-05-05T12:34:50.703Z,35.85
2023-05-05T12:35:50.717Z,35.83
2023-05-05T12:36:50.785Z,35.91
2023-05-05T12:37:50.765Z,35.82
2023-05-05T12:38:50.747Z,35.87
2023-05-05T12:39:50.786Z,35.79
2023-05-05T12:40:50.742Z,35.81
2023-05-05T12:41:50.736Z,35.81
2023-05-05T12:42:50.756Z,35.72
2023-05-05T12:43:50.771Z,35.70
2023-05-05T12:44:50.755Z,35.71
2023-05-05T12:45:50.760Z,35.77
2023-05-05T12:46:50.755Z,35.73
2023-05-05T12:47:50.804Z,35.76
2023-05-05T12:48:50.756Z,35.65
2023-05-05T12:49:50.754Z,35.55
2023-05-05T12:50:50.766Z,35.55
2023-05-05T12:51:50.750Z,35.68
2023-05-05T12:52:50.783Z,35.65